sensor_id;sensor_type;location;lat;lon;timestamp;pressure;altitude;pressure_sealevel;temperature;humidity
27334;BME280;14817;57.104;-2.094;2023-06-14T00:01:56;101174.56;;;15.44;100.00
27334;BME280;14817;57.104;-2.094;2023-06-14T00:04:23;101173.88;;;15.25;100.00
27334;BME280;14817;57.104;-2.094;2023-06-14T00:06:52;101167.50;;;15.35;100.00
27334;BME280;14817;57.104;-2.094;2023-06-14T00:09:21;101179.94;;;15.36;100.00
27334;BME280;14817;57.104;-2.094;2023-06-14T00:11:48;101170.88;;;15.45;100.00
27334;BME280;14817;57.104;-2.094;2023-06-14T00:14:14;101177.94;;;15.46;100.00
27334;BME280;14817;57.104;-2.094;2023-06-14T00:16:44;101177.09;;;15.45;100.00
27334;BME280;14817;57.104;-2.094;2023-06-14T00:19:11;101173.72;;;15.35;100.00
27334;BME280;14817;57.104;-2.094;2023-06-14T00:21:38;101170.34;;;15.41;100.00
27334;BME280;14817;57.104;-2.094;2023-06-14T00:24:05;101174.56;;;15.44;100.00
27334;BME280;14817;57.104;-2.094;2023-06-14T00:26:32;101177.94;;;15.38;100.00
27334;BME280;14817;57.104;-2.094;2023-06-14T00:28:59;101177.78;;;15.39;100.00
27334;BME280;14817;57.104;-2.094;2023-06-14T00:31:26;101171.34;;;15.40;100.00
27334;BME280;14817;57.104;-2.094;2023-06-14T00:33:53;101178.97;;;15.37;100.00
27334;BME280;14817;57.104;-2.094;2023-06-14T00:36:20;101172.03;;;15.34;100.00
27334;BME280;14817;57.104;-2.094;2023-06-14T00:38:47;101169.16;;;15.36;100.00
27334;BME280;14817;57.104;-2.094;2023-06-14T00:41:14;101175.75;;;15.33;100.00
27334;BME280;14817;57.104;-2.094;2023-06-14T00:43:41;101170.50;;;15.31;100.00
27334;BME280;14817;57.104;-2.094;2023-06-14T00:46:08;101175.06;;;15.31;100.00
27334;BME280;14817;57.104;-2.094;2023-06-14T00:48:37;101175.91;;;15.31;100.00
27334;BME280;14817;57.104;-2.094;2023-06-14T00:51:05;101172.53;;;15.29;100.00
27334;BME280;14817;57.104;-2.094;2023-06-14T00:53:33;101177.09;;;15.29;100.00
27334;BME280;14817;57.104;-2.094;2023-06-14T00:56:02;101173.19;;;15.23;100.00
27334;BME280;14817;57.104;-2.094;2023-06-14T00:58:30;101178.75;;;15.14;100.00
27334;BME280;14817;57.104;-2.094;2023-06-14T01:00:57;101166.78;;;15.16;100.00
27334;BME280;14817;57.104;-2.094;2023-06-14T01:03:24;101175.56;;;15.18;100.00
27334;BME280;14817;57.104;-2.094;2023-06-14T01:05:59;101164.44;;;15.13;100.00
27334;BME280;14817;57.104;-2.094;2023-06-14T01:08:50;101176.22;;;15.12;100.00
27334;BME280;14817;57.104;-2.094;2023-06-14T01:11:22;101174.53;;;15.11;100.00
27334;BME280;14817;57.104;-2.094;2023-06-14T01:13:51;101170.66;;;15.05;100.00
27334;BME280;14817;57.104;-2.094;2023-06-14T01:16:21;101171.47;;;14.89;100.00
27334;BME280;14817;57.104;-2.094;2023-06-14T01:18:49;101176.53;;;14.93;100.00
27334;BME280;14817;57.104;-2.094;2023-06-14T01:21:25;101170.94;;;14.86;100.00
27334;BME280;14817;57.104;-2.094;2023-06-14T01:23:52;101173.81;;;14.93;100.00
27334;BME280;14817;57.104;-2.094;2023-06-14T01:26:21;101171.97;;;14.93;100.00
27334;BME280;14817;57.104;-2.094;2023-06-14T01:28:51;101171.59;;;14.80;100.00
27334;BME280;14817;57.104;-2.094;2023-06-14T01:31:23;101172.81;;;14.85;100.00
27334;BME280;14817;57.104;-2.094;2023-06-14T01:33:51;101168.94;;;14.88;100.00
27334;BME280;14817;57.104;-2.094;2023-06-14T01:36:22;101167.06;;;14.88;100.00
27334;BME280;14817;57.104;-2.094;2023-06-14T01:38:49;101163.38;;;14.89;100.00
27334;BME280;14817;57.104;-2.094;2023-06-14T01:41:20;101160.84;;;14.88;100.00
27334;BME280;14817;57.104;-2.094;2023-06-14T01:43:48;101166.22;;;14.88;100.00
27334;BME280;14817;57.104;-2.094;2023-06-14T01:46:17;101158.78;;;14.82;100.00
27334;BME280;14817;57.104;-2.094;2023-06-14T01:48:44;101156.25;;;14.80;100.00
27334;BME280;14817;57.104;-2.094;2023-06-14T01:51:11;101156.59;;;14.77;100.00
27334;BME280;14817;57.104;-2.094;2023-06-14T01:53:38;101162.16;;;14.76;100.00
27334;BME280;14817;57.104;-2.094;2023-06-14T01:56:05;101158.59;;;14.75;100.00
27334;BME280;14817;57.104;-2.094;2023-06-14T01:58:32;101151.69;;;14.73;100.00
27334;BME280;14817;57.104;-2.094;2023-06-14T02:01:00;101155.53;;;14.70;100.00
27334;BME280;14817;57.104;-2.094;2023-06-14T02:03:27;101152.34;;;14.66;100.00
27334;BME280;14817;57.104;-2.094;2023-06-14T02:05:55;101154.53;;;14.63;100.00
27334;BME280;14817;57.104;-2.094;2023-06-14T02:08:22;101148.78;;;14.58;100.00
27334;BME280;14817;57.104;-2.094;2023-06-14T02:10:50;101154.84;;;14.60;100.00
27334;BME280;14817;57.104;-2.094;2023-06-14T02:13:17;101147.38;;;14.54;100.00
27334;BME280;14817;57.104;-2.094;2023-06-14T02:15:44;101150.81;;;14.56;100.00
27334;BME280;14817;57.104;-2.094;2023-06-14T02:18:12;101150.09;;;14.54;100.00
27334;BME280;14817;57.104;-2.094;2023-06-14T02:20:39;101144.38;;;14.57;100.00
27334;BME280;14817;57.104;-2.094;2023-06-14T02:23:06;101139.31;;;14.54;100.00
27334;BME280;14817;57.104;-2.094;2023-06-14T02:25:34;101146.25;;;14.56;100.00
27334;BME280;14817;57.104;-2.094;2023-06-14T02:28:05;101140.13;;;14.54;100.00
27334;BME280;14817;57.104;-2.094;2023-06-14T02:30:32;101140.25;;;14.44;100.00
27334;BME280;14817;57.104;-2.094;2023-06-14T02:32:59;101143.13;;;14.43;100.00
27334;BME280;14817;57.104;-2.094;2023-06-14T02:35:27;101134.56;;;14.47;100.00
27334;BME280;14817;57.104;-2.094;2023-06-14T02:37:55;101133.91;;;14.54;100.00
27334;BME280;14817;57.104;-2.094;2023-06-14T02:40:22;101137.25;;;14.47;100.00
27334;BME280;14817;57.104;-2.094;2023-06-14T02:42:49;101138.59;;;14.43;100.00
27334;BME280;14817;57.104;-2.094;2023-06-14T02:45:17;101140.59;;;14.41;100.00
27334;BME280;14817;57.104;-2.094;2023-06-14T02:47:43;101142.81;;;14.46;100.00
27334;BME280;14817;57.104;-2.094;2023-06-14T02:50:11;101146.53;;;14.45;100.00
27334;BME280;14817;57.104;-2.094;2023-06-14T02:52:39;101143.00;;;14.53;100.00
27334;BME280;14817;57.104;-2.094;2023-06-14T02:55:08;101143.66;;;14.55;100.00
27334;BME280;14817;57.104;-2.094;2023-06-14T02:57:36;101143.41;;;14.58;100.00
27334;BME280;14817;57.104;-2.094;2023-06-14T03:00:04;101146.59;;;14.61;100.00
27334;BME280;14817;57.104;-2.094;2023-06-14T03:02:34;101146.13;;;14.66;100.00
27334;BME280;14817;57.104;-2.094;2023-06-14T03:05:01;101145.94;;;14.67;100.00
27334;BME280;14817;57.104;-2.094;2023-06-14T03:07:30;101146.31;;;14.73;100.00
27334;BME280;14817;57.104;-2.094;2023-06-14T03:09:58;101154.41;;;14.73;100.00
27334;BME280;14817;57.104;-2.094;2023-06-14T03:12:25;101151.19;;;14.77;100.00
27334;BME280;14817;57.104;-2.094;2023-06-14T03:14:53;101149.50;;;14.76;100.00
27334;BME280;14817;57.104;-2.094;2023-06-14T03:17:25;101149.34;;;14.78;100.00
27334;BME280;14817;57.104;-2.094;2023-06-14T03:19:57;101135.53;;;14.73;100.00
27334;BME280;14817;57.104;-2.094;2023-06-14T03:22:24;101136.50;;;14.72;100.00
27334;BME280;14817;57.104;-2.094;2023-06-14T03:24:52;101126.91;;;14.69;100.00
27334;BME280;14817;57.104;-2.094;2023-06-14T03:27:22;101133.78;;;14.63;100.00
27334;BME280;14817;57.104;-2.094;2023-06-14T03:29:49;101142.06;;;14.62;100.00
27334;BME280;14817;57.104;-2.094;2023-06-14T03:32:16;101140.69;;;14.58;100.00
27334;BME280;14817;57.104;-2.094;2023-06-14T03:34:43;101129.72;;;14.59;100.00
27334;BME280;14817;57.104;-2.094;2023-06-14T03:37:18;101137.00;;;14.67;100.00
27334;BME280;14817;57.104;-2.094;2023-06-14T03:39:46;101134.97;;;14.61;100.00
27334;BME280;14817;57.104;-2.094;2023-06-14T03:42:22;101139.53;;;14.60;100.00
27334;BME280;14817;57.104;-2.094;2023-06-14T03:44:50;101133.13;;;14.69;100.00
27334;BME280;14817;57.104;-2.094;2023-06-14T03:47:19;101140.44;;;14.85;100.00
27334;BME280;14817;57.104;-2.094;2023-06-14T03:49:46;101135.06;;;14.94;100.00
27334;BME280;14817;57.104;-2.094;2023-06-14T03:52:13;101142.47;;;15.08;100.00
27334;BME280;14817;57.104;-2.094;2023-06-14T03:54:43;101141.66;;;15.40;100.00
27334;BME280;14817;57.104;-2.094;2023-06-14T03:57:14;101148.94;;;15.73;100.00
27334;BME280;14817;57.104;-2.094;2023-06-14T03:59:42;101147.22;;;15.96;100.00
27334;BME280;14817;57.104;-2.094;2023-06-14T04:02:09;101146.50;;;16.10;100.00
27334;BME280;14817;57.104;-2.094;2023-06-14T04:04:36;101145.38;;;16.36;100.00
27334;BME280;14817;57.104;-2.094;2023-06-14T04:07:05;101146.34;;;16.51;100.00
27334;BME280;14817;57.104;-2.094;2023-06-14T04:09:32;101142.53;;;16.69;100.00
27334;BME280;14817;57.104;-2.094;2023-06-14T04:11:59;101139.41;;;16.88;100.00
27334;BME280;14817;57.104;-2.094;2023-06-14T04:14:25;101139.38;;;16.97;100.00
27334;BME280;14817;57.104;-2.094;2023-06-14T04:16:52;101144.53;;;17.29;100.00
27334;BME280;14817;57.104;-2.094;2023-06-14T04:19:21;101139.84;;;17.46;100.00
27334;BME280;14817;57.104;-2.094;2023-06-14T04:21:49;101138.56;;;17.57;100.00
27334;BME280;14817;57.104;-2.094;2023-06-14T04:24:17;101140.03;;;17.83;100.00
27334;BME280;14817;57.104;-2.094;2023-06-14T04:26:46;101133.50;;;17.92;100.00
27334;BME280;14817;57.104;-2.094;2023-06-14T04:29:18;101136.31;;;18.13;100.00
27334;BME280;14817;57.104;-2.094;2023-06-14T04:31:55;101132.81;;;18.49;100.00
27334;BME280;14817;57.104;-2.094;2023-06-14T04:34:26;101140.13;;;18.49;100.00
27334;BME280;14817;57.104;-2.094;2023-06-14T04:36:57;101129.78;;;18.74;100.00
27334;BME280;14817;57.104;-2.094;2023-06-14T04:39:35;101138.13;;;18.57;100.00
27334;BME280;14817;57.104;-2.094;2023-06-14T04:42:02;101139.66;;;18.96;100.00
27334;BME280;14817;57.104;-2.094;2023-06-14T04:44:31;101141.47;;;19.32;100.00
27334;BME280;14817;57.104;-2.094;2023-06-14T04:47:03;101141.88;;;19.08;100.00
27334;BME280;14817;57.104;-2.094;2023-06-14T04:49:30;101139.69;;;18.82;100.00
27334;BME280;14817;57.104;-2.094;2023-06-14T04:51:59;101150.84;;;18.72;100.00
27334;BME280;14817;57.104;-2.094;2023-06-14T04:54:37;101147.09;;;18.58;100.00
27334;BME280;14817;57.104;-2.094;2023-06-14T04:57:07;101141.25;;;18.40;100.00
27334;BME280;14817;57.104;-2.094;2023-06-14T04:59:35;101149.00;;;17.98;100.00
27334;BME280;14817;57.104;-2.094;2023-06-14T05:02:02;101153.84;;;17.88;100.00
27334;BME280;14817;57.104;-2.094;2023-06-14T05:04:29;101153.19;;;17.86;100.00
27334;BME280;14817;57.104;-2.094;2023-06-14T05:06:57;101155.91;;;17.48;100.00
27334;BME280;14817;57.104;-2.094;2023-06-14T05:09:24;101154.81;;;17.57;100.00
27334;BME280;14817;57.104;-2.094;2023-06-14T05:11:51;101162.63;;;17.90;100.00
27334;BME280;14817;57.104;-2.094;2023-06-14T05:14:19;101167.53;;;17.94;100.00
27334;BME280;14817;57.104;-2.094;2023-06-14T05:16:46;101169.38;;;17.94;100.00
27334;BME280;14817;57.104;-2.094;2023-06-14T05:19:15;101157.19;;;19.15;100.00
27334;BME280;14817;57.104;-2.094;2023-06-14T05:21:44;101160.34;;;19.62;100.00
27334;BME280;14817;57.104;-2.094;2023-06-14T05:24:11;101167.59;;;20.05;100.00
27334;BME280;14817;57.104;-2.094;2023-06-14T05:26:39;101163.09;;;20.18;100.00
27334;BME280;14817;57.104;-2.094;2023-06-14T05:29:06;101166.69;;;20.67;100.00
27334;BME280;14817;57.104;-2.094;2023-06-14T05:31:33;101154.66;;;21.03;100.00
27334;BME280;14817;57.104;-2.094;2023-06-14T05:34:00;101156.34;;;21.04;100.00
27334;BME280;14817;57.104;-2.094;2023-06-14T05:36:27;101154.06;;;21.21;100.00
27334;BME280;14817;57.104;-2.094;2023-06-14T05:38:54;101158.31;;;20.69;100.00
27334;BME280;14817;57.104;-2.094;2023-06-14T05:41:28;101155.69;;;19.34;100.00
27334;BME280;14817;57.104;-2.094;2023-06-14T05:43:55;101165.78;;;19.19;100.00
27334;BME280;14817;57.104;-2.094;2023-06-14T05:46:23;101163.34;;;18.73;100.00
27334;BME280;14817;57.104;-2.094;2023-06-14T05:48:53;101170.50;;;18.59;100.00
27334;BME280;14817;57.104;-2.094;2023-06-14T05:51:20;101171.75;;;18.27;100.00
27334;BME280;14817;57.104;-2.094;2023-06-14T05:53:48;101180.53;;;18.14;100.00
27334;BME280;14817;57.104;-2.094;2023-06-14T05:56:15;101183.81;;;18.09;100.00
27334;BME280;14817;57.104;-2.094;2023-06-14T05:58:45;101186.03;;;18.06;100.00
27334;BME280;14817;57.104;-2.094;2023-06-14T06:01:13;101191.56;;;18.12;100.00
27334;BME280;14817;57.104;-2.094;2023-06-14T06:03:40;101178.75;;;18.36;100.00
27334;BME280;14817;57.104;-2.094;2023-06-14T06:06:08;101179.03;;;18.41;100.00
27334;BME280;14817;57.104;-2.094;2023-06-14T06:08:35;101188.84;;;18.12;100.00
27334;BME280;14817;57.104;-2.094;2023-06-14T06:11:01;101182.19;;;18.60;100.00
27334;BME280;14817;57.104;-2.094;2023-06-14T06:13:28;101183.50;;;18.64;100.00
27334;BME280;14817;57.104;-2.094;2023-06-14T06:15:55;101185.75;;;18.45;100.00
27334;BME280;14817;57.104;-2.094;2023-06-14T06:18:23;101180.28;;;18.75;100.00
27334;BME280;14817;57.104;-2.094;2023-06-14T06:20:50;101186.28;;;19.22;100.00
27334;BME280;14817;57.104;-2.094;2023-06-14T06:23:17;101186.09;;;19.45;100.00
27334;BME280;14817;57.104;-2.094;2023-06-14T06:25:44;101189.34;;;19.12;100.00
27334;BME280;14817;57.104;-2.094;2023-06-14T06:28:10;101194.88;;;19.04;100.00
27334;BME280;14817;57.104;-2.094;2023-06-14T06:30:38;101203.16;;;19.17;100.00
27334;BME280;14817;57.104;-2.094;2023-06-14T06:33:05;101203.06;;;18.74;100.00
27334;BME280;14817;57.104;-2.094;2023-06-14T06:35:32;101199.16;;;19.13;100.00
27334;BME280;14817;57.104;-2.094;2023-06-14T06:38:00;101202.94;;;20.39;100.00
27334;BME280;14817;57.104;-2.094;2023-06-14T06:40:27;101192.06;;;21.69;100.00
27334;BME280;14817;57.104;-2.094;2023-06-14T06:42:54;101202.88;;;20.61;100.00
27334;BME280;14817;57.104;-2.094;2023-06-14T06:45:25;101200.38;;;20.59;100.00
27334;BME280;14817;57.104;-2.094;2023-06-14T06:47:51;101203.22;;;20.16;100.00
27334;BME280;14817;57.104;-2.094;2023-06-14T06:50:19;101207.47;;;20.26;100.00
27334;BME280;14817;57.104;-2.094;2023-06-14T06:52:46;101191.88;;;21.77;100.00
27334;BME280;14817;57.104;-2.094;2023-06-14T06:55:13;101188.03;;;22.38;100.00
27334;BME280;14817;57.104;-2.094;2023-06-14T06:57:41;101189.97;;;21.78;100.00
27334;BME280;14817;57.104;-2.094;2023-06-14T07:00:09;101184.69;;;22.88;100.00
27334;BME280;14817;57.104;-2.094;2023-06-14T07:02:36;101177.06;;;23.35;100.00
27334;BME280;14817;57.104;-2.094;2023-06-14T07:05:04;101186.91;;;22.66;100.00
27334;BME280;14817;57.104;-2.094;2023-06-14T07:07:38;101186.94;;;23.05;100.00
27334;BME280;14817;57.104;-2.094;2023-06-14T07:10:05;101182.78;;;23.59;100.00
27334;BME280;14817;57.104;-2.094;2023-06-14T07:12:32;101184.09;;;24.25;100.00
27334;BME280;14817;57.104;-2.094;2023-06-14T07:15:00;101180.97;;;24.03;100.00
27334;BME280;14817;57.104;-2.094;2023-06-14T07:17:29;101181.91;;;23.65;100.00
27334;BME280;14817;57.104;-2.094;2023-06-14T07:19:56;101183.44;;;24.04;100.00
27334;BME280;14817;57.104;-2.094;2023-06-14T07:22:23;101181.69;;;23.92;100.00
27334;BME280;14817;57.104;-2.094;2023-06-14T07:24:50;101190.63;;;24.42;100.00
27334;BME280;14817;57.104;-2.094;2023-06-14T07:27:17;101183.72;;;23.78;100.00
27334;BME280;14817;57.104;-2.094;2023-06-14T07:29:44;101189.69;;;24.55;100.00
27334;BME280;14817;57.104;-2.094;2023-06-14T07:32:11;101189.91;;;25.02;100.00
27334;BME280;14817;57.104;-2.094;2023-06-14T07:34:38;101188.72;;;24.06;100.00
27334;BME280;14817;57.104;-2.094;2023-06-14T07:37:04;101176.19;;;25.21;100.00
27334;BME280;14817;57.104;-2.094;2023-06-14T07:39:31;101184.63;;;25.19;100.00
27334;BME280;14817;57.104;-2.094;2023-06-14T07:41:58;101181.06;;;25.61;100.00
27334;BME280;14817;57.104;-2.094;2023-06-14T07:44:29;101179.50;;;25.77;100.00
27334;BME280;14817;57.104;-2.094;2023-06-14T07:46:57;101179.66;;;26.17;100.00
27334;BME280;14817;57.104;-2.094;2023-06-14T07:49:27;101177.56;;;25.42;100.00
27334;BME280;14817;57.104;-2.094;2023-06-14T07:51:53;101176.44;;;26.08;100.00
27334;BME280;14817;57.104;-2.094;2023-06-14T07:54:20;101179.97;;;26.44;100.00
27334;BME280;14817;57.104;-2.094;2023-06-14T07:56:51;101178.91;;;26.45;100.00
27334;BME280;14817;57.104;-2.094;2023-06-14T07:59:18;101184.19;;;26.23;100.00
27334;BME280;14817;57.104;-2.094;2023-06-14T08:01:46;101186.94;;;26.23;100.00
27334;BME280;14817;57.104;-2.094;2023-06-14T08:04:14;101185.75;;;25.96;100.00
27334;BME280;14817;57.104;-2.094;2023-06-14T08:06:41;101186.81;;;26.30;100.00
27334;BME280;14817;57.104;-2.094;2023-06-14T08:09:12;101192.44;;;26.23;100.00
27334;BME280;14817;57.104;-2.094;2023-06-14T08:11:39;101198.13;;;25.75;100.00
27334;BME280;14817;57.104;-2.094;2023-06-14T08:14:06;101199.94;;;25.69;100.00
27334;BME280;14817;57.104;-2.094;2023-06-14T08:16:33;101192.88;;;25.73;100.00
27334;BME280;14817;57.104;-2.094;2023-06-14T08:19:00;101192.38;;;25.53;100.00
27334;BME280;14817;57.104;-2.094;2023-06-14T08:21:27;101203.88;;;25.31;100.00
27334;BME280;14817;57.104;-2.094;2023-06-14T08:23:57;101195.88;;;25.30;100.00
27334;BME280;14817;57.104;-2.094;2023-06-14T08:26:24;101199.91;;;25.81;100.00
27334;BME280;14817;57.104;-2.094;2023-06-14T08:28:55;101200.91;;;25.98;100.00
27334;BME280;14817;57.104;-2.094;2023-06-14T08:31:22;101199.84;;;25.99;100.00
27334;BME280;14817;57.104;-2.094;2023-06-14T08:33:50;101198.97;;;25.87;100.00
27334;BME280;14817;57.104;-2.094;2023-06-14T08:36:17;101204.00;;;25.36;100.00
27334;BME280;14817;57.104;-2.094;2023-06-14T08:38:44;101193.75;;;26.09;100.00
27334;BME280;14817;57.104;-2.094;2023-06-14T08:41:11;101201.97;;;26.09;100.00
27334;BME280;14817;57.104;-2.094;2023-06-14T08:43:40;101197.19;;;26.40;100.00
27334;BME280;14817;57.104;-2.094;2023-06-14T08:46:07;101201.75;;;26.22;100.00
27334;BME280;14817;57.104;-2.094;2023-06-14T08:48:37;101195.59;;;26.56;100.00
27334;BME280;14817;57.104;-2.094;2023-06-14T08:51:04;101194.94;;;26.89;100.00
27334;BME280;14817;57.104;-2.094;2023-06-14T08:53:32;101197.78;;;26.42;100.00
27334;BME280;14817;57.104;-2.094;2023-06-14T08:56:04;101196.13;;;26.93;100.00
27334;BME280;14817;57.104;-2.094;2023-06-14T08:58:32;101208.53;;;26.32;100.00
27334;BME280;14817;57.104;-2.094;2023-06-14T09:01:04;101197.72;;;25.17;100.00
27334;BME280;14817;57.104;-2.094;2023-06-14T09:03:31;101204.13;;;25.11;100.00
27334;BME280;14817;57.104;-2.094;2023-06-14T09:06:00;101201.25;;;25.36;100.00
27334;BME280;14817;57.104;-2.094;2023-06-14T09:08:28;101205.81;;;25.42;100.00
27334;BME280;14817;57.104;-2.094;2023-06-14T09:10:58;101194.69;;;26.26;100.00
27334;BME280;14817;57.104;-2.094;2023-06-14T09:13:26;101200.44;;;25.90;100.00
27334;BME280;14817;57.104;-2.094;2023-06-14T09:15:57;101199.81;;;25.76;100.00
27334;BME280;14817;57.104;-2.094;2023-06-14T09:18:34;101200.44;;;26.13;100.00
27334;BME280;14817;57.104;-2.094;2023-06-14T09:21:02;101202.47;;;26.30;100.00
27334;BME280;14817;57.104;-2.094;2023-06-14T09:23:33;101202.47;;;26.82;100.00
27334;BME280;14817;57.104;-2.094;2023-06-14T09:26:13;101201.28;;;26.37;100.00
27334;BME280;14817;57.104;-2.094;2023-06-14T09:28:44;101200.91;;;26.57;100.00
27334;BME280;14817;57.104;-2.094;2023-06-14T09:31:14;101205.28;;;26.58;100.00
27334;BME280;14817;57.104;-2.094;2023-06-14T09:33:43;101204.56;;;26.39;100.00
27334;BME280;14817;57.104;-2.094;2023-06-14T09:41:20;101192.91;;;27.25;100.00
27334;BME280;14817;57.104;-2.094;2023-06-14T09:43:47;101195.75;;;27.01;100.00
27334;BME280;14817;57.104;-2.094;2023-06-14T09:46:14;101199.94;;;27.21;100.00
27334;BME280;14817;57.104;-2.094;2023-06-14T09:48:41;101206.94;;;26.71;100.00
27334;BME280;14817;57.104;-2.094;2023-06-14T09:51:10;101199.69;;;26.94;100.00
27334;BME280;14817;57.104;-2.094;2023-06-14T09:53:41;101202.66;;;27.33;100.00
27334;BME280;14817;57.104;-2.094;2023-06-14T09:56:10;101201.25;;;27.30;100.00
27334;BME280;14817;57.104;-2.094;2023-06-14T09:58:39;101207.25;;;27.27;100.00
27334;BME280;14817;57.104;-2.094;2023-06-14T10:01:08;101207.50;;;27.14;100.00
27334;BME280;14817;57.104;-2.094;2023-06-14T10:03:37;101213.28;;;26.72;100.00
27334;BME280;14817;57.104;-2.094;2023-06-14T10:06:26;101204.50;;;27.27;100.00
27334;BME280;14817;57.104;-2.094;2023-06-14T10:08:56;101216.34;;;26.87;100.00
27334;BME280;14817;57.104;-2.094;2023-06-14T10:11:25;101209.13;;;26.98;100.00
27334;BME280;14817;57.104;-2.094;2023-06-14T10:13:53;101213.75;;;27.09;100.00
27334;BME280;14817;57.104;-2.094;2023-06-14T10:19:34;101218.50;;;26.85;100.00
27334;BME280;14817;57.104;-2.094;2023-06-14T10:22:24;101212.31;;;27.06;100.00
27334;BME280;14817;57.104;-2.094;2023-06-14T10:24:53;101221.19;;;26.97;100.00
27334;BME280;14817;57.104;-2.094;2023-06-14T10:27:19;101222.22;;;26.67;100.00
27334;BME280;14817;57.104;-2.094;2023-06-14T10:32:21;101224.13;;;26.78;100.00
27334;BME280;14817;57.104;-2.094;2023-06-14T10:35:04;101221.72;;;26.82;100.00
27334;BME280;14817;57.104;-2.094;2023-06-14T10:37:32;101223.22;;;26.61;100.00
27334;BME280;14817;57.104;-2.094;2023-06-14T10:39:59;101223.97;;;26.21;100.00
27334;BME280;14817;57.104;-2.094;2023-06-14T10:42:35;101221.34;;;26.14;100.00
27334;BME280;14817;57.104;-2.094;2023-06-14T10:45:02;101222.38;;;25.90;100.00
27334;BME280;14817;57.104;-2.094;2023-06-14T10:47:30;101216.44;;;26.40;100.00
27334;BME280;14817;57.104;-2.094;2023-06-14T10:52:29;101229.78;;;26.01;100.00
27334;BME280;14817;57.104;-2.094;2023-06-14T10:57:27;101225.59;;;26.45;100.00
27334;BME280;14817;57.104;-2.094;2023-06-14T10:59:54;101228.34;;;25.86;100.00
27334;BME280;14817;57.104;-2.094;2023-06-14T11:04:50;101229.38;;;25.74;100.00
27334;BME280;14817;57.104;-2.094;2023-06-14T11:10:05;101228.72;;;26.02;100.00
27334;BME280;14817;57.104;-2.094;2023-06-14T11:12:39;101234.44;;;25.16;100.00
27334;BME280;14817;57.104;-2.094;2023-06-14T11:15:06;101231.72;;;25.46;100.00
27334;BME280;14817;57.104;-2.094;2023-06-14T11:17:34;101220.84;;;25.94;100.00
27334;BME280;14817;57.104;-2.094;2023-06-14T11:20:10;101217.00;;;25.71;100.00
27334;BME280;14817;57.104;-2.094;2023-06-14T11:22:47;101221.19;;;26.09;100.00
27334;BME280;14817;57.104;-2.094;2023-06-14T11:25:14;101223.78;;;25.80;100.00
27334;BME280;14817;57.104;-2.094;2023-06-14T11:27:42;101227.00;;;25.05;100.00
27334;BME280;14817;57.104;-2.094;2023-06-14T11:30:10;101221.34;;;25.49;100.00
27334;BME280;14817;57.104;-2.094;2023-06-14T11:32:38;101219.34;;;25.79;100.00
27334;BME280;14817;57.104;-2.094;2023-06-14T11:35:05;101220.19;;;25.68;100.00
27334;BME280;14817;57.104;-2.094;2023-06-14T11:37:33;101216.13;;;25.59;100.00
27334;BME280;14817;57.104;-2.094;2023-06-14T11:40:04;101216.28;;;25.76;100.00
27334;BME280;14817;57.104;-2.094;2023-06-14T11:42:36;101218.03;;;25.70;100.00
27334;BME280;14817;57.104;-2.094;2023-06-14T11:45:06;101218.75;;;25.77;100.00
27334;BME280;14817;57.104;-2.094;2023-06-14T11:47:36;101216.78;;;25.31;100.00
27334;BME280;14817;57.104;-2.094;2023-06-14T11:50:05;101214.59;;;25.63;100.00
27334;BME280;14817;57.104;-2.094;2023-06-14T11:52:33;101223.78;;;25.80;100.00
27334;BME280;14817;57.104;-2.094;2023-06-14T11:55:01;101218.41;;;25.74;100.00
27334;BME280;14817;57.104;-2.094;2023-06-14T11:57:29;101222.69;;;25.70;100.00
27334;BME280;14817;57.104;-2.094;2023-06-14T11:59:56;101225.13;;;25.17;100.00
27334;BME280;14817;57.104;-2.094;2023-06-14T12:02:24;101224.84;;;25.07;100.00
27334;BME280;14817;57.104;-2.094;2023-06-14T12:04:52;101223.09;;;25.31;100.00
27334;BME280;14817;57.104;-2.094;2023-06-14T12:07:21;101221.47;;;24.75;100.00
27334;BME280;14817;57.104;-2.094;2023-06-14T12:12:18;101216.72;;;24.45;100.00
27334;BME280;14817;57.104;-2.094;2023-06-14T12:14:46;101218.84;;;24.43;100.00
27334;BME280;14817;57.104;-2.094;2023-06-14T12:17:16;101218.13;;;24.11;100.00
27334;BME280;14817;57.104;-2.094;2023-06-14T12:19:45;101214.72;;;24.15;100.00
27334;BME280;14817;57.104;-2.094;2023-06-14T12:22:13;101220.31;;;23.77;100.00
27334;BME280;14817;57.104;-2.094;2023-06-14T12:24:44;101229.88;;;23.93;100.00
27334;BME280;14817;57.104;-2.094;2023-06-14T12:27:12;101226.75;;;23.89;100.00
27334;BME280;14817;57.104;-2.094;2023-06-14T12:29:42;101230.34;;;23.58;100.00
27334;BME280;14817;57.104;-2.094;2023-06-14T12:32:12;101230.78;;;23.55;100.00
27334;BME280;14817;57.104;-2.094;2023-06-14T12:34:39;101234.13;;;23.25;100.00
27334;BME280;14817;57.104;-2.094;2023-06-14T12:37:06;101226.66;;;23.07;100.00
27334;BME280;14817;57.104;-2.094;2023-06-14T12:39:33;101230.16;;;23.53;100.00
27334;BME280;14817;57.104;-2.094;2023-06-14T12:42:00;101229.28;;;23.59;91.87
27334;BME280;14817;57.104;-2.094;2023-06-14T12:44:27;101228.72;;;23.12;92.43
27334;BME280;14817;57.104;-2.094;2023-06-14T12:46:54;101231.88;;;23.79;94.88
27334;BME280;14817;57.104;-2.094;2023-06-14T12:49:21;101235.88;;;23.44;88.55
27334;BME280;14817;57.104;-2.094;2023-06-14T12:51:48;101234.31;;;23.62;81.28
27334;BME280;14817;57.104;-2.094;2023-06-14T12:54:15;101228.31;;;23.47;79.28
27334;BME280;14817;57.104;-2.094;2023-06-14T12:56:53;101230.19;;;23.46;78.03
27334;BME280;14817;57.104;-2.094;2023-06-14T12:59:21;101233.31;;;23.18;79.85
27334;BME280;14817;57.104;-2.094;2023-06-14T13:01:48;101233.41;;;23.68;75.54